createdAt,value
2018-08-12T00:02:22.798Z,0.00
2018-08-12T00:04:53.808Z,0.00
2018-08-12T00:05:53.807Z,0.00
2018-08-12T00:06:56.407Z,0.00
2018-08-12T00:08:46.330Z,0.00
2018-08-12T00:10:58.817Z,0.00
2018-08-12T00:11:58.801Z,0.00
2018-08-12T00:12:58.793Z,0.00
2018-08-12T00:13:58.794Z,0.00
2018-08-12T00:19:17.777Z,0.00
2018-08-12T00:20:17.781Z,0.00
2018-08-12T00:21:17.772Z,0.00
2018-08-12T00:22:17.772Z,0.00
2018-08-12T00:23:17.773Z,0.00
2018-08-12T00:24:17.769Z,0.00
2018-08-12T00:41:29.659Z,0.00
2018-08-12T00:42:29.660Z,0.00
2018-08-12T00:43:29.655Z,0.00
2018-08-12T00:44:29.656Z,0.00
2018-08-12T00:45:29.654Z,0.00
2018-08-12T00:46:29.653Z,0.00
2018-08-12T00:49:49.580Z,0.00
2018-08-12T00:50:49.580Z,0.00
2018-08-12T00:51:49.576Z,0.00
2018-08-12T00:52:49.579Z,0.00
2018-08-12T00:53:49.574Z,0.00
2018-08-12T00:54:49.574Z,0.00
2018-08-12T00:55:49.569Z,0.00
2018-08-12T00:56:49.773Z,0.00
2018-08-12T00:57:49.567Z,0.00
2018-08-12T00:59:49.970Z,0.00
2018-08-12T01:00:49.563Z,0.00
2018-08-12T01:01:49.564Z,0.00
2018-08-12T01:02:49.562Z,0.00
2018-08-12T01:03:49.559Z,0.00
2018-08-12T01:04:49.559Z,0.00
2018-08-12T01:05:49.557Z,0.00
2018-08-12T01:06:49.551Z,0.00
2018-08-12T01:07:49.556Z,0.00
2018-08-12T01:08:49.552Z,0.00
2018-08-12T01:09:49.551Z,0.00
2018-08-12T01:10:49.551Z,0.00
2018-08-12T01:11:50.152Z,0.00
2018-08-12T01:12:49.544Z,0.00
2018-08-12T01:13:49.543Z,0.00
2018-08-12T01:14:49.537Z,0.00
2018-08-12T01:15:49.538Z,0.00
2018-08-12T01:16:49.533Z,0.00
2018-08-12T01:17:49.538Z,0.00
2018-08-12T01:18:49.531Z,0.00
2018-08-12T01:19:49.534Z,0.00
2018-08-12T01:20:49.527Z,0.00
2018-08-12T01:21:49.532Z,0.00
2018-08-12T01:22:49.524Z,0.00
2018-08-12T01:23:49.523Z,0.00
2018-08-12T01:24:49.520Z,0.00
2018-08-12T01:25:49.520Z,0.00
2018-08-12T01:26:49.517Z,0.00
2018-08-12T01:27:49.516Z,0.00
2018-08-12T01:28:49.513Z,0.00
2018-08-12T01:29:49.513Z,0.00
2018-08-12T01:30:49.509Z,0.00
2018-08-12T01:31:49.759Z,0.00
2018-08-12T01:32:49.505Z,0.00
2018-08-12T01:33:49.507Z,0.00
2018-08-12T01:34:49.502Z,0.00
2018-08-12T01:35:49.535Z,0.00
2018-08-12T01:36:49.497Z,0.00
2018-08-12T01:37:49.751Z,0.00
2018-08-12T01:38:49.495Z,0.00
2018-08-12T01:39:49.494Z,0.00
2018-08-12T01:40:49.489Z,0.00
2018-08-12T01:41:49.490Z,0.00
2018-08-12T01:42:49.491Z,0.00
2018-08-12T01:43:49.487Z,0.00
2018-08-12T01:44:49.482Z,0.00
2018-08-12T01:45:49.484Z,0.00
2018-08-12T01:46:49.480Z,0.00
2018-08-12T01:47:49.479Z,0.00
2018-08-12T01:48:49.480Z,0.00
2018-08-12T01:49:49.475Z,0.00
2018-08-12T01:50:49.479Z,0.00
2018-08-12T01:51:49.472Z,0.00
2018-08-12T01:52:49.467Z,0.00
2018-08-12T01:53:49.466Z,0.00
2018-08-12T01:54:49.465Z,0.00
2018-08-12T01:55:49.465Z,0.00
2018-08-12T01:56:49.457Z,0.00
2018-08-12T01:57:49.458Z,0.00
2018-08-12T01:58:49.453Z,0.00
2018-08-12T01:59:49.454Z,0.00
2018-08-12T02:00:49.448Z,0.00
2018-08-12T02:01:49.451Z,0.00
2018-08-12T02:02:49.449Z,0.00
2018-08-12T02:03:49.448Z,0.00
2018-08-12T02:04:49.441Z,0.00
2018-08-12T02:05:49.442Z,0.00
2018-08-12T02:06:49.436Z,0.00
2018-08-12T02:07:49.437Z,0.00
2018-08-12T02:08:49.435Z,0.00
2018-08-12T02:09:49.433Z,0.00
2018-08-12T02:10:49.427Z,0.00
2018-08-12T02:11:49.428Z,0.00
2018-08-12T02:12:49.425Z,0.00
2018-08-12T02:13:49.424Z,0.00
2018-08-12T02:14:49.420Z,0.00
2018-08-12T02:15:49.420Z,0.00
2018-08-12T02:16:49.416Z,0.00
2018-08-12T02:17:49.416Z,0.00
2018-08-12T02:18:49.412Z,0.00
2018-08-12T02:19:49.715Z,0.00
2018-08-12T02:20:49.412Z,0.00
2018-08-12T02:21:49.408Z,0.00
2018-08-12T02:22:49.410Z,0.00
2018-08-12T02:23:49.403Z,0.00
2018-08-12T02:24:49.399Z,0.00
2018-08-12T02:25:49.399Z,0.00
2018-08-12T02:26:49.395Z,0.00
2018-08-12T02:27:49.395Z,0.00
2018-08-12T02:28:49.391Z,0.00
2018-08-12T02:29:49.391Z,0.00
2018-08-12T02:30:49.387Z,0.00
2018-08-12T02:31:49.397Z,0.00
2018-08-12T02:32:49.383Z,0.00
2018-08-12T02:33:49.385Z,0.00
2018-08-12T02:34:49.380Z,0.00
2018-08-12T02:35:49.381Z,0.00
2018-08-12T02:36:49.384Z,0.00
2018-08-12T02:37:49.376Z,0.00
2018-08-12T02:38:49.375Z,0.00
2018-08-12T02:39:49.371Z,0.00
2018-08-12T02:40:49.373Z,0.00
2018-08-12T02:41:49.368Z,0.00
2018-08-12T02:42:49.363Z,0.00
2018-08-12T02:43:49.364Z,0.00
2018-08-12T02:44:49.363Z,0.00
2018-08-12T02:45:49.360Z,0.00
2018-08-12T02:46:49.356Z,0.00
2018-08-12T02:47:49.356Z,0.00
2018-08-12T02:48:49.351Z,0.00
2018-08-12T02:49:49.653Z,0.00
2018-08-12T02:50:49.354Z,0.00
2018-08-12T02:51:49.350Z,0.00
2018-08-12T02:52:49.344Z,0.00
2018-08-12T02:53:49.344Z,0.00
2018-08-12T02:54:49.352Z,0.00
2018-08-12T02:55:49.340Z,0.00
2018-08-12T02:56:49.336Z,0.00
2018-08-12T02:57:49.336Z,0.00
2018-08-12T02:58:49.336Z,0.00
2018-08-12T02:59:49.332Z,0.00
2018-08-12T03:00:49.328Z,0.00
2018-08-12T03:01:49.328Z,0.00
2018-08-12T03:02:49.324Z,0.00
2018-08-12T03:03:49.323Z,0.00
2018-08-12T03:04:49.319Z,0.00
2018-08-12T03:05:49.320Z,0.00
2018-08-12T03:06:49.316Z,0.00
2018-08-12T03:07:49.314Z,0.00
2018-08-12T03:08:49.312Z,0.00
2018-08-12T03:09:49.319Z,0.00
2018-08-12T03:10:49.307Z,0.00
2018-08-12T03:11:49.310Z,0.00
2018-08-12T03:12:49.302Z,0.00
2018-08-12T03:13:49.303Z,0.00
2018-08-12T03:14:49.297Z,0.00
2018-08-12T03:15:49.297Z,0.00
2018-08-12T03:16:49.293Z,0.00
2018-08-12T03:17:49.293Z,0.00
2018-08-12T03:18:49.289Z,0.00
2018-08-12T03:19:49.538Z,0.00
2018-08-12T03:20:49.284Z,0.00
2018-08-12T03:21:49.286Z,0.00
2018-08-12T03:22:49.280Z,0.00
2018-08-12T03:23:49.279Z,0.00
2018-08-12T03:24:49.275Z,0.00
2018-08-12T03:25:49.276Z,0.00
2018-08-12T03:26:49.271Z,0.00
2018-08-12T03:27:49.269Z,0.00
2018-08-12T03:28:49.264Z,0.00
2018-08-12T03:29:49.266Z,0.00
2018-08-12T03:31:31.660Z,0.00
2018-08-12T03:32:31.659Z,0.00
2018-08-12T03:33:31.654Z,0.00
2018-08-12T03:34:31.655Z,0.00
2018-08-12T03:35:31.654Z,0.00
2018-08-12T03:36:31.650Z,0.00
2018-08-12T03:37:31.647Z,0.00
2018-08-12T03:38:31.648Z,0.00
2018-08-12T03:39:31.639Z,0.00
2018-08-12T03:40:31.640Z,0.00
2018-08-12T03:41:31.636Z,0.00
2018-08-12T03:42:31.636Z,0.00
2018-08-12T03:43:31.631Z,0.00
2018-08-12T03:44:31.633Z,0.00
2018-08-12T03:45:31.627Z,0.00
2018-08-12T03:46:31.627Z,0.00
2018-08-12T03:47:31.621Z,0.00
2018-08-12T03:48:31.620Z,0.00
2018-08-12T03:49:31.618Z,0.00
2018-08-12T03:50:31.616Z,0.00
2018-08-12T03:51:31.611Z,0.00
2018-08-12T03:52:31.611Z,0.00
2018-08-12T03:53:31.608Z,0.00
2018-08-12T03:54:31.607Z,0.00
2018-08-12T03:55:31.602Z,0.00
2018-08-12T03:56:31.601Z,0.00
2018-08-12T03:57:31.605Z,0.00
2018-08-12T03:58:31.597Z,0.00
2018-08-12T03:59:31.595Z,0.00
2018-08-12T04:00:31.592Z,0.00
2018-08-12T04:01:31.588Z,0.00
2018-08-12T04:02:31.587Z,0.00
2018-08-12T04:03:31.582Z,0.00
2018-08-12T04:04:31.582Z,0.00
2018-08-12T04:05:31.580Z,0.00
2018-08-12T04:06:31.577Z,5.63
2018-08-12T04:07:31.576Z,5.63
2018-08-12T04:08:31.572Z,5.63
2018-08-12T04:09:31.568Z,5.63
2018-08-12T04:10:31.568Z,5.63
2018-08-12T04:11:31.562Z,5.63
2018-08-12T04:12:31.562Z,5.63
2018-08-12T04:13:31.558Z,5.63
2018-08-12T04:14:31.559Z,5.63
2018-08-12T04:15:31.553Z,11.25
2018-08-12T04:16:31.553Z,11.25
2018-08-12T04:17:31.550Z,11.25
2018-08-12T04:18:31.549Z,11.25
2018-08-12T04:19:31.544Z,11.25
2018-08-12T04:20:31.544Z,11.25
2018-08-12T04:21:31.563Z,11.25
2018-08-12T04:22:31.540Z,16.88
2018-08-12T04:23:31.533Z,16.88
2018-08-12T04:24:31.535Z,16.88
2018-08-12T04:25:31.631Z,16.88
2018-08-12T04:26:31.531Z,16.88
2018-08-12T04:27:31.524Z,16.88
2018-08-12T04:28:31.526Z,16.88
2018-08-12T04:29:31.521Z,22.50
2018-08-12T04:30:31.522Z,22.50
2018-08-12T04:31:31.517Z,22.50
2018-08-12T04:32:31.517Z,28.13
2018-08-12T04:33:31.511Z,28.13
2018-08-12T04:34:31.513Z,28.13
2018-08-12T04:35:31.508Z,33.75
2018-08-12T04:36:31.509Z,33.75
2018-08-12T04:37:31.504Z,39.38
2018-08-12T04:38:31.506Z,39.38
2018-08-12T04:39:31.499Z,39.38
2018-08-12T04:40:31.499Z,45.00
2018-08-12T04:41:31.497Z,50.63
2018-08-12T04:42:31.498Z,61.88
2018-08-12T04:43:31.490Z,73.13
2018-08-12T04:44:31.496Z,67.50
2018-08-12T04:45:31.487Z,90.00
2018-08-12T04:46:31.490Z,106.88
2018-08-12T04:47:31.482Z,106.88
2018-08-12T04:48:31.482Z,90.00
2018-08-12T04:49:31.479Z,61.88
2018-08-12T04:50:31.480Z,56.25
2018-08-12T04:51:31.473Z,61.88
2018-08-12T04:52:31.475Z,84.38
2018-08-12T04:53:31.472Z,84.38
2018-08-12T04:54:31.475Z,78.75
2018-08-12T04:55:31.467Z,67.50
2018-08-12T04:56:31.471Z,67.50
2018-08-12T04:57:31.472Z,67.50
2018-08-12T04:58:31.466Z,67.50
2018-08-12T04:59:31.461Z,118.13
2018-08-12T05:00:31.462Z,123.75
2018-08-12T05:01:31.459Z,90.00
2018-08-12T05:02:31.459Z,95.63
2018-08-12T05:03:31.455Z,135.00
2018-08-12T05:04:31.456Z,140.63
2018-08-12T05:05:31.452Z,202.50
2018-08-12T05:06:31.457Z,315.00
2018-08-12T05:07:31.449Z,326.25
2018-08-12T05:08:31.449Z,337.50
2018-08-12T05:09:31.446Z,348.75
2018-08-12T05:10:31.448Z,360.00
2018-08-12T05:11:31.444Z,371.25
2018-08-12T05:12:31.446Z,371.25
2018-08-12T05:13:31.443Z,360.00
2018-08-12T05:14:31.445Z,337.50
2018-08-12T05:15:31.444Z,326.25
2018-08-12T05:16:31.446Z,275.63
2018-08-12T05:17:31.442Z,230.63
2018-08-12T05:18:31.448Z,208.13
2018-08-12T05:19:31.442Z,191.25
2018-08-12T05:20:31.445Z,219.38
2018-08-12T05:21:31.444Z,253.13
2018-08-12T05:22:31.447Z,286.88
2018-08-12T05:23:31.448Z,320.63
2018-08-12T05:24:31.449Z,579.38
2018-08-12T05:25:31.445Z,545.63
2018-08-12T05:26:31.449Z,331.88
2018-08-12T05:27:31.446Z,185.63
2018-08-12T05:28:31.449Z,174.38
2018-08-12T05:29:31.448Z,168.75
2018-08-12T05:30:31.451Z,168.75
2018-08-12T05:31:31.448Z,180.00
2018-08-12T05:32:31.452Z,191.25
2018-08-12T05:33:31.451Z,202.50
2018-08-12T05:34:31.454Z,225.00
2018-08-12T05:35:31.455Z,281.25
2018-08-12T05:36:31.454Z,225.00
2018-08-12T05:37:31.452Z,219.38
2018-08-12T05:38:31.456Z,208.13
2018-08-12T05:39:31.453Z,511.88
2018-08-12T05:40:31.456Z,675.00
2018-08-12T05:41:31.454Z,275.63
2018-08-12T05:42:31.460Z,208.13
2018-08-12T05:43:31.455Z,191.25
2018-08-12T05:44:31.457Z,196.88
2018-08-12T05:45:31.455Z,230.63
2018-08-12T05:46:31.459Z,309.38
2018-08-12T05:47:31.457Z,455.63
2018-08-12T05:48:31.460Z,331.88
2018-08-12T05:49:31.458Z,326.25
2018-08-12T05:50:31.463Z,607.50
2018-08-12T05:51:31.565Z,523.13
2018-08-12T05:52:31.461Z,247.50
2018-08-12T05:53:31.467Z,230.63
2018-08-12T05:54:31.462Z,230.63
2018-08-12T05:55:31.463Z,258.75
2018-08-12T05:56:31.462Z,264.38
2018-08-12T05:57:31.461Z,270.00
2018-08-12T05:58:31.465Z,343.13
2018-08-12T05:59:31.462Z,286.88
2018-08-12T06:00:31.464Z,185.63
2018-08-12T06:01:31.461Z,180.00
2018-08-12T06:02:31.465Z,180.00
2018-08-12T06:03:31.462Z,185.63
2018-08-12T06:04:31.465Z,191.25
2018-08-12T06:05:31.463Z,196.88
2018-08-12T06:06:31.466Z,202.50
2018-08-12T06:07:31.464Z,202.50
2018-08-12T06:08:31.471Z,202.50
2018-08-12T06:09:31.464Z,208.13
2018-08-12T06:10:31.468Z,230.63
2018-08-12T06:11:31.465Z,253.13
2018-08-12T06:12:31.468Z,264.38
2018-08-12T06:13:31.465Z,264.38
2018-08-12T06:14:31.469Z,298.13
2018-08-12T06:15:31.499Z,247.50
2018-08-12T06:16:31.468Z,286.88
2018-08-12T06:17:31.542Z,286.88
2018-08-12T06:18:31.473Z,241.88
2018-08-12T06:19:31.473Z,292.50
2018-08-12T06:20:31.469Z,343.13
2018-08-12T06:21:31.467Z,230.63
2018-08-12T06:22:31.470Z,213.75
2018-08-12T06:23:31.468Z,275.63
2018-08-12T06:24:31.471Z,573.75
2018-08-12T06:25:31.468Z,568.13
2018-08-12T06:26:31.472Z,590.63
2018-08-12T06:27:31.469Z,461.25
2018-08-12T06:28:31.472Z,236.25
2018-08-12T06:29:31.471Z,241.88
2018-08-12T06:30:31.474Z,241.88
2018-08-12T06:31:31.729Z,213.75
2018-08-12T06:32:31.475Z,213.75
2018-08-12T06:33:31.474Z,298.13
2018-08-12T06:34:31.620Z,258.75
2018-08-12T06:35:31.475Z,303.75
2018-08-12T06:36:31.478Z,292.50
2018-08-12T06:37:31.475Z,208.13
2018-08-12T06:38:31.480Z,202.50
2018-08-12T06:39:31.478Z,264.38
2018-08-12T06:40:31.484Z,478.13
2018-08-12T06:41:31.479Z,320.63
2018-08-12T06:42:31.482Z,371.25
2018-08-12T06:43:31.480Z,421.88
2018-08-12T06:44:31.486Z,421.88
2018-08-12T06:45:31.482Z,388.13
2018-08-12T06:46:31.485Z,444.38
2018-08-12T06:47:31.483Z,630.00
2018-08-12T06:48:31.487Z,601.88
2018-08-12T06:49:31.485Z,371.25
2018-08-12T06:50:31.489Z,365.63
2018-08-12T06:51:31.487Z,236.25
2018-08-12T06:52:31.491Z,264.38
2018-08-12T06:53:31.489Z,281.25
2018-08-12T06:54:31.493Z,264.38
2018-08-12T06:55:31.493Z,433.13
2018-08-12T06:56:31.495Z,500.63
2018-08-12T06:57:31.494Z,855.00
2018-08-12T06:58:31.499Z,1153.13
2018-08-12T07:01:21.377Z,1361.25
2018-08-12T07:02:21.381Z,1361.25
2018-08-12T07:03:21.381Z,1350.00
2018-08-12T07:04:21.387Z,1130.63
2018-08-12T07:05:21.389Z,1125.00
2018-08-12T07:07:08.818Z,1406.25
2018-08-12T07:08:08.823Z,1260.00
2018-08-12T07:09:08.825Z,1586.25
2018-08-12T07:10:08.833Z,1867.50
2018-08-12T07:11:08.840Z,2885.63
2018-08-12T07:12:08.856Z,3954.38
2018-08-12T07:13:08.846Z,4303.13
2018-08-12T07:14:08.856Z,3397.50
2018-08-12T07:15:08.859Z,2373.75
2018-08-12T07:16:08.866Z,3093.75
2018-08-12T07:17:08.871Z,4528.13
2018-08-12T07:18:08.885Z,3279.38
2018-08-12T07:19:08.885Z,3448.13
2018-08-12T07:20:08.897Z,4438.13
2018-08-12T07:22:11.360Z,2289.38
2018-08-12T07:23:11.371Z,1333.13
2018-08-12T07:24:11.374Z,1811.25
2018-08-12T07:25:11.384Z,1603.13
2018-08-12T07:26:11.392Z,1867.50
2018-08-12T07:27:11.397Z,2131.88
2018-08-12T07:28:11.401Z,748.13
2018-08-12T07:29:11.413Z,455.63
2018-08-12T07:30:11.421Z,540.00
2018-08-12T07:31:11.425Z,2193.75
2018-08-12T07:32:11.430Z,3420.00
2018-08-12T07:33:11.443Z,3639.38
2018-08-12T07:34:11.443Z,4320.00
2018-08-12T07:35:11.452Z,2289.38
2018-08-12T07:36:11.458Z,1383.75
2018-08-12T07:37:11.470Z,1282.50
2018-08-12T07:38:11.470Z,4590.00
2018-08-12T07:39:11.480Z,4443.75
2018-08-12T07:40:11.485Z,4651.88
2018-08-12T07:41:11.496Z,2638.13
2018-08-12T07:42:11.499Z,990.00
2018-08-12T07:43:11.508Z,900.00
2018-08-12T07:44:11.514Z,613.13
2018-08-12T07:45:11.523Z,765.00
2018-08-12T07:46:11.526Z,916.88
2018-08-12T07:47:11.538Z,1305.00
2018-08-12T07:48:11.543Z,838.13
2018-08-12T07:49:11.553Z,1158.75
2018-08-12T07:50:11.557Z,900.00
2018-08-12T07:51:11.566Z,1355.63
2018-08-12T07:52:11.571Z,1563.75
2018-08-12T07:53:11.580Z,1181.25
2018-08-12T07:54:11.584Z,742.50
2018-08-12T07:55:11.595Z,658.13
2018-08-12T07:56:11.597Z,630.00
2018-08-12T07:57:11.606Z,945.00
2018-08-12T07:58:11.611Z,1282.50
2018-08-12T07:59:11.619Z,984.38
2018-08-12T08:00:11.626Z,1023.75
2018-08-12T08:01:11.633Z,714.38
2018-08-12T08:02:54.057Z,900.00
2018-08-12T08:03:55.284Z,675.00
2018-08-12T08:04:56.691Z,2086.88
2018-08-12T08:13:28.917Z,652.50
2018-08-12T08:14:28.925Z,736.88
2018-08-12T08:34:08.264Z,450.00
2018-08-12T08:35:08.271Z,433.13
2018-08-12T08:36:08.272Z,410.63
2018-08-12T08:37:08.278Z,388.13
2018-08-12T08:38:08.305Z,371.25
2018-08-12T08:39:08.292Z,388.13
2018-08-12T09:05:56.040Z,393.75
2018-08-12T09:13:38.437Z,545.63
2018-08-12T09:14:38.447Z,483.75
2018-08-12T18:47:52.968Z,5.63
2018-08-12T19:04:04.009Z,0.00
2018-08-12T19:11:01.317Z,0.00
2018-08-12T19:15:17.135Z,0.00
2018-08-12T19:25:34.403Z,0.00
2018-08-12T19:41:36.466Z,0.00
2018-08-12T19:42:37.281Z,0.00
2018-08-12T19:47:24.339Z,0.00
2018-08-12T19:55:56.089Z,0.00
2018-08-12T20:03:24.776Z,0.00
2018-08-12T20:31:10.896Z,0.00
2018-08-12T20:34:05.797Z,0.00
2018-08-12T20:35:05.802Z,0.00
2018-08-12T20:36:05.806Z,0.00
2018-08-12T20:55:06.157Z,0.00
2018-08-12T20:56:06.157Z,0.00
2018-08-12T20:57:06.161Z,0.00
2018-08-12T20:58:06.167Z,0.00
2018-08-12T20:59:06.170Z,0.00
2018-08-12T21:00:06.176Z,0.00
2018-08-12T21:01:06.179Z,0.00
2018-08-12T21:02:06.191Z,0.00
2018-08-12T21:03:06.192Z,0.00
2018-08-12T21:04:06.195Z,0.00
2018-08-12T21:05:06.199Z,0.00
2018-08-12T21:06:06.205Z,0.00
2018-08-12T21:07:06.208Z,0.00
2018-08-12T21:08:06.216Z,0.00
2018-08-12T21:09:06.217Z,0.00
2018-08-12T21:10:06.228Z,0.00
2018-08-12T21:11:06.227Z,0.00
2018-08-12T21:12:06.405Z,0.00
2018-08-12T21:13:06.236Z,0.00
2018-08-12T21:14:06.242Z,0.00
2018-08-12T21:15:06.245Z,0.00
2018-08-12T21:16:06.253Z,0.00
2018-08-12T21:17:06.254Z,0.00
2018-08-12T21:18:06.262Z,0.00
2018-08-12T21:19:06.348Z,0.00
2018-08-12T21:20:06.269Z,0.00
2018-08-12T21:21:06.273Z,0.00
2018-08-12T21:22:06.279Z,0.00
2018-08-12T21:23:06.282Z,0.00
2018-08-12T21:24:06.290Z,0.00
2018-08-12T21:25:06.540Z,0.00
2018-08-12T21:26:06.316Z,0.00
2018-08-12T21:27:06.299Z,0.00
2018-08-12T21:28:06.306Z,0.00
2018-08-12T21:29:06.310Z,0.00
2018-08-12T21:30:06.315Z,0.00
2018-08-12T21:31:06.318Z,0.00
2018-08-12T21:32:06.324Z,0.00
2018-08-12T21:33:06.327Z,0.00
2018-08-12T21:34:06.333Z,0.00
2018-08-12T21:35:06.335Z,0.00
2018-08-12T21:36:06.341Z,0.00
2018-08-12T21:37:06.343Z,0.00
2018-08-12T21:38:06.351Z,0.00
2018-08-12T21:39:06.353Z,0.00
2018-08-12T21:40:06.359Z,0.00
2018-08-12T21:41:06.361Z,0.00
2018-08-12T21:42:06.368Z,0.00
2018-08-12T21:43:06.672Z,0.00
2018-08-12T21:44:06.376Z,0.00
2018-08-12T21:45:06.382Z,0.00
2018-08-12T21:46:06.392Z,0.00
2018-08-12T21:47:06.389Z,0.00
2018-08-12T21:48:06.394Z,0.00
2018-08-12T21:49:06.395Z,0.00
2018-08-12T21:50:06.402Z,0.00
2018-08-12T21:51:06.405Z,0.00
2018-08-12T21:52:06.410Z,0.00
2018-08-12T21:53:06.415Z,0.00
2018-08-12T21:54:06.419Z,0.00
2018-08-12T21:55:06.674Z,0.00
2018-08-12T21:56:06.432Z,0.00
2018-08-12T21:57:06.430Z,0.00
2018-08-12T21:58:06.436Z,0.00
2018-08-12T21:59:06.438Z,0.00
2018-08-12T22:00:06.444Z,0.00
2018-08-12T22:01:06.447Z,0.00
2018-08-12T22:02:06.453Z,0.00
2018-08-12T22:03:06.456Z,0.00
2018-08-12T22:04:06.465Z,0.00
2018-08-12T22:05:06.463Z,0.00
2018-08-12T22:06:06.476Z,0.00
2018-08-12T22:07:06.472Z,0.00
2018-08-12T22:08:06.477Z,0.00
2018-08-12T22:09:06.481Z,0.00
2018-08-12T22:10:06.486Z,0.00
2018-08-12T22:11:06.490Z,0.00
2018-08-12T22:12:06.496Z,0.00
2018-08-12T22:13:06.498Z,0.00
2018-08-12T22:14:06.505Z,0.00
2018-08-12T22:15:06.505Z,0.00
2018-08-12T22:16:06.510Z,0.00
2018-08-12T22:17:06.514Z,0.00
2018-08-12T22:18:06.518Z,0.00
2018-08-12T22:19:06.521Z,0.00
2018-08-12T22:20:06.526Z,0.00
2018-08-12T22:21:06.532Z,0.00
2018-08-12T22:22:06.534Z,0.00
2018-08-12T22:23:06.540Z,0.00
2018-08-12T22:24:06.542Z,0.00
2018-08-12T22:25:06.793Z,0.00
2018-08-12T22:26:06.549Z,0.00
2018-08-12T22:27:06.550Z,0.00
2018-08-12T22:28:06.557Z,0.00
2018-08-12T22:29:06.558Z,0.00
2018-08-12T22:30:06.565Z,0.00
2018-08-12T22:31:06.566Z,0.00
2018-08-12T22:32:06.572Z,0.00
2018-08-12T22:33:06.574Z,0.00
2018-08-12T22:34:06.578Z,0.00
2018-08-12T22:35:06.582Z,0.00
2018-08-12T22:36:06.601Z,0.00
2018-08-12T22:37:06.591Z,0.00
2018-08-12T22:38:06.609Z,0.00
2018-08-12T22:39:06.596Z,0.00
2018-08-12T22:40:06.601Z,0.00
2018-08-12T22:41:06.604Z,0.00
2018-08-12T22:42:06.608Z,0.00
2018-08-12T22:43:06.621Z,0.00
2018-08-12T22:44:06.628Z,0.00
2018-08-12T22:45:06.635Z,0.00
2018-08-12T22:46:06.626Z,0.00
2018-08-12T22:47:06.624Z,0.00
2018-08-12T22:48:06.642Z,0.00
2018-08-12T22:49:06.636Z,0.00
2018-08-12T22:50:06.637Z,0.00
2018-08-12T22:51:06.637Z,0.00
2018-08-12T22:52:06.644Z,0.00
2018-08-12T22:53:06.646Z,0.00
2018-08-12T22:54:06.652Z,0.00
2018-08-12T22:55:06.904Z,0.00
2018-08-12T22:56:06.658Z,0.00
2018-08-12T22:57:06.661Z,0.00
2018-08-12T22:58:06.663Z,0.00
2018-08-12T22:59:06.666Z,0.00
2018-08-12T23:00:06.667Z,0.00
2018-08-12T23:01:06.670Z,0.00
2018-08-12T23:02:06.687Z,0.00
2018-08-12T23:03:06.677Z,0.00
2018-08-12T23:04:06.681Z,0.00
2018-08-12T23:05:06.690Z,0.00
2018-08-12T23:06:06.696Z,0.00
2018-08-12T23:07:06.690Z,0.00
2018-08-12T23:08:06.695Z,0.00
2018-08-12T23:09:06.695Z,0.00
2018-08-12T23:10:06.700Z,0.00
2018-08-12T23:11:06.724Z,0.00
2018-08-12T23:12:06.732Z,0.00
2018-08-12T23:13:06.706Z,0.00
2018-08-12T23:14:06.718Z,0.00
2018-08-12T23:15:06.712Z,0.00
2018-08-12T23:16:06.720Z,0.00
2018-08-12T23:17:06.719Z,0.00
2018-08-12T23:18:06.726Z,0.00
2018-08-12T23:19:06.737Z,0.00
2018-08-12T23:20:06.735Z,0.00
2018-08-12T23:21:06.731Z,0.00
2018-08-12T23:22:06.751Z,0.00
2018-08-12T23:23:06.736Z,0.00
2018-08-12T23:24:06.742Z,0.00
2018-08-12T23:25:06.996Z,0.00
2018-08-12T23:26:06.756Z,0.00
2018-08-12T23:27:06.748Z,0.00
2018-08-12T23:28:06.752Z,0.00
2018-08-12T23:29:06.754Z,0.00
2018-08-12T23:30:06.761Z,0.00
2018-08-12T23:31:06.760Z,0.00
2018-08-12T23:32:06.765Z,0.00
2018-08-12T23:33:06.782Z,0.00
2018-08-12T23:34:06.779Z,0.00
2018-08-12T23:35:06.773Z,0.00
2018-08-12T23:36:06.779Z,0.00
2018-08-12T23:37:06.785Z,0.00
2018-08-12T23:38:06.790Z,0.00
2018-08-12T23:39:06.784Z,0.00
2018-08-12T23:40:06.794Z,0.00
2018-08-12T23:41:06.811Z,0.00
2018-08-12T23:42:06.801Z,0.00
2018-08-12T23:43:06.793Z,0.00
2018-08-12T23:44:06.801Z,0.00
2018-08-12T23:45:06.800Z,0.00
2018-08-12T23:46:06.806Z,0.00
2018-08-12T23:47:06.806Z,0.00
2018-08-12T23:48:06.808Z,0.00
2018-08-12T23:49:06.810Z,0.00
2018-08-12T23:50:06.820Z,0.00
2018-08-12T23:51:06.815Z,0.00
2018-08-12T23:52:06.836Z,0.00
2018-08-12T23:53:06.822Z,0.00
2018-08-12T23:54:06.826Z,0.00
2018-08-12T23:55:07.079Z,0.00
2018-08-12T23:56:06.849Z,0.00
2018-08-12T23:57:06.832Z,0.00
2018-08-12T23:58:06.856Z,0.00
2018-08-12T23:59:06.845Z,0.00
